Rogersville, Pennsylvania
Current Conditions -  °F | °C
As of 9:55 PM on Tuesday 21 Oct 2014 (Local Time) from KAFJ Reporting Station
Overcast Overcast  
Wind Chill: 44°   Ceiling: 1100
Heat Index: 46°   Visibility: 10mi
Dew Point: 43°   Wind: 6mph
Humidity: 87%   Direction: 310°NW
Pressure: 30.04"   Gusts: NA
Location:  39.88°N, 80.27°W
Report Text: KAFJ 220155Z AUTO 31005KT 10SM OVC011 08/06 A3004 RMK AO1
Loading
Personal Weather Stations






























Interactive Weather Map
Tropical Storm Tracking
New forecast layout! Learn more

10-Day Weather Forecast

Advertisements
Track Severe Weather on mobile